Nearby METAR Reports

 

ENCN - Kristiansand/Kje, Norway
Distance from station: N 17km
Actualizado: 07/04/2020 21:50
Céu Limpo
Céu Limpo
 Vento de SSW
Vento: SSW 6 km/h
Temperatura: 8°C
Ponto de Orvalho: 0°C
Humidade: 57%
Barómetro: 1030 hPa
Resumo: Céu Limpo
Visibility: greater than 10 km
2020/04/07 19:50 ENCN 071950Z 21003KT 180V250 CAVOK 08/00 Q1030
EKSN - Sindal Airport, Denmark
Distance from station: ESE 145km
Actualizado: 07/04/2020 14:50
NOT Current
Céu Limpo
Céu Limpo
 Vento de W
Vento: W 31 km/h
Temperatura: 12°C
Ponto de Orvalho: 3°C
Humidade: 54%
Barómetro: 1030 hPa
Resumo: Céu Limpo
Visibility: greater than 10 km
2020/04/07 12:50 EKSN 071250Z 28017KT CAVOK 12/03 Q1030
 
EKYT - Alborg, Denmark
Distance from station: SE 153km
Actualizado: 07/04/2020 21:50
Céu Limpo
Céu Limpo
 Vento de SSW
Vento: SSW 9 km/h
Temperatura: 6°C
Wind Chill: 4°C
Ponto de Orvalho: 3°C
Humidade: 81%
Barómetro: 1032 hPa
Clouds: Céu Limpo
Visibility: 10 km
2020/04/07 19:50 EKYT 071950Z AUTO 21005KT 9999 NCD 06/03 Q1032
ENSN - Skien/Geiterygge, Norway
Distance from station: NE 153km
Actualizado: 09/11/2015 09:50
NOT Current
Céu Limpo
Céu Limpo
 Vento de SSW
Vento: SSW 19 km/h, Rajada: 41 km/h
Temperatura: 7°C
Wind Chill: 4°C
Ponto de Orvalho: 3°C
Humidade: 76%
Barómetro: 1000 hPa
Resumo: Céu Limpo
Visibility: greater than 10 km
2015/11/09 08:50 ENSN 090850Z 20010G22KT 150V240 CAVOK 07/03 Q1000
 
ENZV - Stavanger/Sola(A, Norway
Distance from station: NW 166km
Actualizado: 07/04/2020 21:50
Few Clouds
Few Clouds
 Vento de SSE
Vento: SSE 17 km/h
Temperatura: 7°C
Wind Chill: 4°C
Ponto de Orvalho: 2°C
Humidade: 71%
Barómetro: 1029 hPa
Clouds: Few Clouds
Visibility: 10 km
Cloud details: Few Clouds 1433 m
2020/04/07 19:50 ENZV 071950Z 15009KT 9999 FEW047 07/02 Q1029
ENNO - Notodden, Norway
Distance from station: NNE 182km
Actualizado: 06/04/2020 11:50
NOT Current
Nearby showers, Parcialmente nublado
Nearby showers, Parcialmente nublado
 Vento de W
Vento: W 6 km/h
Temperatura: 7°C
Ponto de Orvalho: 2°C
Humidade: 71%
Barómetro: 1021 hPa
Resumo: Nearby Showers
Clouds: Parcialmente nublado
Visibility: 10 km
Cloud details: Parcialmente nublado 853 m
2020/04/06 09:50 ENNO 060950Z 27003KT 9999 VCSH SCT028 07/02 Q1021
 
ENTO - Torp (civ/Nor-Af, Norway
Distance from station: NE 183km
Actualizado: 07/04/2020 21:50
Céu Limpo
Céu Limpo
 Vento de WSW
Vento: WSW 13 km/h
Temperatura: 9°C
Wind Chill: 7°C
Ponto de Orvalho: -2°C
Humidade: 46%
Barómetro: 1028 hPa
Resumo: Céu Limpo
Visibility: greater than 10 km
2020/04/07 19:50 ENTO 071950Z 25007KT 190V260 CAVOK 09/M02 Q1028 NOSIG
EKKA - Karup (dan-Afb), Denmark
Distance from station: SSE 209km
Actualizado: 07/04/2020 21:50
Céu Limpo
Céu Limpo
 Vento de SW
Vento: SW 6 km/h
Temperatura: 7°C
Ponto de Orvalho: 0°C
Humidade: 61%
Barómetro: 1032 hPa
Clouds: Céu Limpo
Visibility: 10 km
2020/04/07 19:50 EKKA 071950Z AUTO 22003KT 9999 NCD 07/00 Q1032
 
ENHD - Haugesund/Karmoy, Norway
Distance from station: NW 216km
Actualizado: 07/04/2020 21:50
Muito nublado
Muito nublado
 Vento de SSE
Vento: SSE 22 km/h
Temperatura: 7°C
Wind Chill: 4°C
Ponto de Orvalho: 4°C
Humidade: 81%
Barómetro: 1028 hPa
Clouds: Muito nublado
Visibility: 10 km
Cloud details: Muito nublado 1859 m
2020/04/07 19:50 ENHD 071950Z AUTO 16012KT 9999 BKN061/// 07/04 Q1028
ENRY - Rygge (nor-Afb), Norway
Distance from station: NE 216km
Actualizado: 07/04/2020 21:50
Céu Limpo
Céu Limpo
 Vento de SW
Vento: SW 9 km/h
Temperatura: 8°C
Wind Chill: 6°C
Ponto de Orvalho: 0°C
Humidade: 57%
Barómetro: 1028 hPa
Resumo: Céu Limpo
Visibility: greater than 10 km
2020/04/07 19:50 ENRY 071950Z 22005KT CAVOK 08/M00 Q1028
 
ESGP - Goteborg/Save (a, Sweden
Distance from station: E 230km
Actualizado: 02/01/2017 11:20
NOT Current
Céu Limpo
Céu Limpo
 Vento de calm
Vento: Calmo
Temperatura: -2°C
Ponto de Orvalho: -4°C
Humidade: 86%
Barómetro: 1012 hPa
Clouds: Céu Limpo
Visibility: 10 km
2017/01/02 10:20 ESGP 021020Z AUTO 00000KT 9999 NCD M02/M04 Q1012
EKVJ - Stauning Airport, Denmark
Distance from station: S 233km
Actualizado: 07/04/2020 14:50
NOT Current
Céu Limpo
Céu Limpo
 Vento de W
Vento: W 17 km/h
Temperatura: 12°C
Ponto de Orvalho: 7°C
Humidade: 72%
Barómetro: 1032 hPa
Resumo: Céu Limpo
Visibility: greater than 10 km
2020/04/07 12:50 EKVJ 071250Z 26009KT CAVOK 12/07 Q1032
 
ENSO - Stord/Soerstokke, Norway
Distance from station: NW 246km
Actualizado: 07/04/2020 14:50
NOT Current
Few Clouds
Few Clouds
 Vento de S
Vento: S 17 km/h
Temperatura: 11°C
Ponto de Orvalho: 3°C
Humidade: 58%
Barómetro: 1029 hPa
Clouds: Few Clouds
Visibility: 10 km
Cloud details: Few Clouds 914 m
2020/04/07 12:50 ENSO 071250Z 19009KT 140V260 9999 FEW030 11/03 Q1029
EKAH - Tirstrup (civ/Mi, Denmark
Distance from station: SE 252km
Actualizado: 07/04/2020 21:50
Céu Limpo
Céu Limpo
 Vento de WSW
Vento: WSW 2 km/h
Temperatura: 7°C
Ponto de Orvalho: 0°C
Humidade: 61%
Barómetro: 1033 hPa
Clouds: Céu Limpo
Visibility: 10 km
2020/04/07 19:50 EKAH 071950Z AUTO 25001KT 9999NDV NCD 07/00 Q1033
 
ESGT - Trollhattan (pvt, Sweden
Distance from station: E 255km
Actualizado: 07/04/2020 21:50
Céu Limpo
Céu Limpo
 Vento de SSW
Vento: SSW 9 km/h
Temperatura: 7°C
Wind Chill: 6°C
Ponto de Orvalho: 2°C
Humidade: 71%
Barómetro: 1030 hPa
Clouds: Céu Limpo
Visibility: 10 km
2020/04/07 19:50 ESGT 071950Z AUTO 21005KT 9999 NCD 07/02 Q1030
ESGG - Goteborg/Landvet, Sweden
Distance from station: E 257km
Actualizado: 07/04/2020 21:50
Céu Limpo
Céu Limpo
 Vento de WSW
Vento: WSW 7 km/h
Temperatura: 4°C
Wind Chill: 2°C
Ponto de Orvalho: 0°C
Humidade: 75%
Barómetro: 1031 hPa
Resumo: Céu Limpo
Visibility: greater than 10 km
2020/04/07 19:50 ESGG 071950Z 24004KT CAVOK 04/M00 Q1031 R21/09//95
 
EKBI - Billund Airport, Denmark
Distance from station: SSE 269km
Actualizado: 07/04/2020 21:50
Céu Limpo
Céu Limpo
 Vento de ENE
Vento: ENE 2 km/h
Temperatura: 5°C
Ponto de Orvalho: 1°C
Humidade: 76%
Barómetro: 1033 hPa
Clouds: Céu Limpo
Visibility: 10 km
2020/04/07 19:50 EKBI 071950Z AUTO 07001KT 9999 NCD 05/01 Q1033
EKHN - Horns Rev B Heli, Denmark
Distance from station: S 274km
Actualizado: 09/08/2016 14:20
NOT Current
Few Clouds
Few Clouds
 Vento de WNW
Vento: WNW 50 km/h, Rajada: 72 km/h
Temperatura: 14°C
Ponto de Orvalho: 10°C
Humidade: 77%
Barómetro: 1018 hPa
Clouds: Few Clouds
Visibility: 10 km
Cloud details: Few Clouds 1158 m
Few Clouds 2438 m
2016/08/09 12:20 EKHN 091220Z AUTO 29027G39KT 270V340 9999NDV FEW038/// FEW080/// 14/10 Q1018
 
ESIB - Satenas (swe-Afb, Sweden
Distance from station: E 277km
Actualizado: 07/04/2020 21:50
Céu Limpo
Céu Limpo
 Vento de SW
Vento: SW 20 km/h
Temperatura: 7°C
Wind Chill: 4°C
Ponto de Orvalho: 4°C
Humidade: 81%
Barómetro: 1029 hPa
Clouds: Céu Limpo
Visibility: 10 km
2020/04/07 19:50 ESIB 071950Z AUTO 22011KT 9999 NCD 07/04 Q1029
EKHR - Horns Rev B Heli, Denmark
Distance from station: S 282km
Actualizado: 04/10/2016 06:20
NOT Current
Céu Limpo
Céu Limpo
 Vento de E
Vento: E 4 km/h
Temperatura: 11°C
Ponto de Orvalho: -49°C
Humidade: 0%
Barómetro: 1038 hPa
Clouds: Céu Limpo
Visibility: 10 km
2016/10/04 04:20 EKHR 040420Z AUTO 08002KT 9999NDV NCD 11/M49 Q1038